Time;durP1;ratioP1;P1;durP2;ratioP2;P2;SDS_P1;SDS_P2;PMS_P1;PMS_P2;Temp;Humidity;BMP_temperature;BMP_pressure;BME280_temperature;BME280_humidity;BME280_pressure;Samples;Min_cycle;Max_cycle;Signal;HPM_P1;HPM_P2
2022/10/22 00:01:53;;;;;;;;;;;13.70;99.90;;;;;;5060323;28;19929;-55
2022/10/22 00:04:19;;;;;;;;;;;13.70;99.90;;;;;;5060126;28;19936;-55
2022/10/22 00:06:46;;;;;;;;;;;13.70;99.90;;;;;;5061587;28;20600;-55
2022/10/22 00:09:13;;;;;;;;;;;13.70;99.90;;;;;;5061244;28;20450;-55
2022/10/22 00:11:40;;;;;;;;;;;13.70;99.90;;;;;;5060013;28;20682;-55
2022/10/22 00:14:08;;;;;;;;;;;13.60;99.90;;;;;;5059763;28;19936;-55
2022/10/22 00:16:34;;;;;;;;;;;13.60;99.90;;;;;;5060664;28;21731;-55
2022/10/22 00:19:01;;;;;;;;;;;13.60;99.90;;;;;;5060809;28;19933;-55
2022/10/22 00:21:27;;;;;;;;;;;13.60;99.90;;;;;;5060021;28;19929;-55
2022/10/22 00:23:54;;;;;;;;;;;13.60;99.90;;;;;;5060983;28;19928;-55
2022/10/22 00:26:21;;;;;;;;;;;13.60;99.90;;;;;;5059938;28;20052;-55
2022/10/22 00:28:47;;;;;;;;;;;13.60;99.90;;;;;;5060800;28;19933;-55
2022/10/22 00:31:17;;;;;;;;;;;13.60;99.90;;;;;;5061506;28;19928;-55
2022/10/22 00:33:45;;;;;;;;;;;13.60;99.90;;;;;;5061058;28;19935;-55
2022/10/22 00:36:12;;;;;;;;;;;13.60;99.90;;;;;;5061611;28;20796;-55
2022/10/22 00:38:39;;;;;;;;;;;13.60;99.90;;;;;;5060842;28;19944;-55
2022/10/22 00:41:06;;;;;;;;;;;13.50;99.90;;;;;;5060648;28;19928;-55
2022/10/22 00:43:33;;;;;;;;;;;13.50;99.90;;;;;;5061041;28;19929;-55
2022/10/22 00:45:59;;;;;;;;;;;13.50;99.90;;;;;;5060855;28;19935;-55
2022/10/22 00:48:29;;;;;;;;;;;13.50;99.90;;;;;;5060630;28;19944;-55
2022/10/22 00:50:57;;;;;;;;;;;13.50;99.90;;;;;;5061199;28;19928;-55
2022/10/22 00:53:26;;;;;;;;;;;13.50;99.90;;;;;;5061341;28;20157;-55
2022/10/22 00:55:54;;;;;;;;;;;13.50;99.90;;;;;;5060257;28;20031;-56
2022/10/22 00:58:22;;;;;;;;;;;13.50;99.90;;;;;;5060391;28;19943;-55
2022/10/22 01:00:49;;;;;;;;;;;13.50;99.90;;;;;;5060254;28;19936;-55
2022/10/22 01:03:16;;;;;;;;;;;13.40;99.90;;;;;;5061319;28;20506;-55
2022/10/22 01:05:46;;;;;;;;;;;13.40;99.90;;;;;;5060520;28;19932;-55
2022/10/22 01:08:17;;;;;;;;;;;13.40;99.90;;;;;;5060393;28;19943;-55
2022/10/22 01:10:48;;;;;;;;;;;13.40;99.90;;;;;;5060242;28;21084;-55
2022/10/22 01:13:20;;;;;;;;;;;13.50;99.90;;;;;;5060563;28;19928;-55
2022/10/22 01:15:50;;;;;;;;;;;13.50;99.90;;;;;;5060838;28;19928;-55
2022/10/22 01:18:20;;;;;;;;;;;13.50;99.90;;;;;;5060065;28;19933;-55
2022/10/22 01:20:55;;;;;;;;;;;13.50;99.90;;;;;;5060294;28;20469;-55
2022/10/22 01:23:29;;;;;;;;;;;13.50;99.90;;;;;;5059089;28;19936;-55
2022/10/22 01:25:58;;;;;;;;;;;13.50;99.90;;;;;;5060193;28;19935;-55
2022/10/22 01:28:31;;;;;;;;;;;13.50;99.90;;;;;;5060512;28;19933;-55
2022/10/22 01:30:59;;;;;;;;;;;13.50;99.90;;;;;;5060166;28;19929;-55
2022/10/22 01:33:26;;;;;;;;;;;13.50;99.90;;;;;;5060352;28;19929;-55
2022/10/22 01:35:53;;;;;;;;;;;13.50;99.90;;;;;;5059430;28;19935;-55
2022/10/22 01:38:21;;;;;;;;;;;13.50;99.90;;;;;;5060081;28;19933;-55
2022/10/22 01:40:48;;;;;;;;;;;13.50;99.90;;;;;;5059370;28;19928;-55
2022/10/22 01:43:15;;;;;;;;;;;13.50;99.90;;;;;;5059832;28;19936;-55
2022/10/22 01:45:43;;;;;;;;;;;13.50;99.90;;;;;;5059633;28;19932;-55
2022/10/22 01:48:21;;;;;;;;;;;13.50;99.90;;;;;;5060256;28;19940;-55
2022/10/22 01:50:54;;;;;;;;;;;13.50;99.90;;;;;;5059416;28;20512;-55
2022/10/22 01:53:30;;;;;;;;;;;13.50;99.90;;;;;;5059831;28;19936;-55
2022/10/22 01:56:04;;;;;;;;;;;13.50;99.90;;;;;;5059586;28;19928;-55
2022/10/22 01:58:35;;;;;;;;;;;13.50;99.90;;;;;;5058873;28;20326;-55
2022/10/22 02:01:05;;;;;;;;;;;13.50;99.90;;;;;;5059560;28;20331;-55
2022/10/22 02:03:37;;;;;;;;;;;13.50;99.90;;;;;;5060091;28;19929;-55
2022/10/22 02:06:07;;;;;;;;;;;13.50;99.90;;;;;;5060400;28;19929;-55
2022/10/22 02:08:35;;;;;;;;;;;13.50;99.90;;;;;;5060452;28;19932;-55
2022/10/22 02:11:02;;;;;;;;;;;13.60;99.90;;;;;;5059903;28;19929;-55
2022/10/22 02:13:30;;;;;;;;;;;13.50;99.90;;;;;;5059293;28;19929;-55
2022/10/22 02:15:57;;;;;;;;;;;13.60;99.90;;;;;;5059326;28;20040;-55
2022/10/22 02:18:26;;;;;;;;;;;13.50;99.90;;;;;;5059793;28;19940;-55
2022/10/22 02:20:54;;;;;;;;;;;13.60;99.90;;;;;;5059807;28;20426;-55
2022/10/22 02:23:21;;;;;;;;;;;13.60;99.90;;;;;;5060202;28;19962;-55
2022/10/22 02:25:50;;;;;;;;;;;13.60;99.90;;;;;;5059209;28;19929;-55
2022/10/22 02:28:19;;;;;;;;;;;13.60;99.90;;;;;;5059703;28;19932;-55
2022/10/22 02:30:47;;;;;;;;;;;13.50;99.90;;;;;;5059946;28;20312;-55
2022/10/22 02:33:16;;;;;;;;;;;13.50;99.90;;;;;;5059231;28;20385;-55
2022/10/22 02:35:43;;;;;;;;;;;13.60;99.90;;;;;;5059644;28;19928;-55
2022/10/22 02:38:12;;;;;;;;;;;13.60;99.90;;;;;;5062628;28;19933;-55
2022/10/22 02:40:39;;;;;;;;;;;13.60;99.90;;;;;;5063450;28;19936;-55
2022/10/22 02:43:05;;;;;;;;;;;13.70;99.90;;;;;;5063190;28;19929;-55
2022/10/22 02:45:34;;;;;;;;;;;13.60;99.90;;;;;;5061448;28;19928;-56
2022/10/22 02:48:01;;;;;;;;;;;13.60;99.90;;;;;;5062538;28;19955;-55
2022/10/22 02:50:27;;;;;;;;;;;13.60;99.90;;;;;;5062951;28;20311;-55
2022/10/22 02:52:54;;;;;;;;;;;13.60;99.90;;;;;;5062540;28;19928;-55
2022/10/22 02:55:22;;;;;;;;;;;13.60;99.90;;;;;;5062628;28;20691;-55
2022/10/22 02:57:49;;;;;;;;;;;13.70;99.90;;;;;;5062260;28;19940;-55
2022/10/22 03:00:16;;;;;;;;;;;13.70;99.90;;;;;;5062791;28;19929;-55
2022/10/22 03:02:42;;;;;;;;;;;13.70;99.90;;;;;;5062339;28;19936;-55
2022/10/22 03:05:09;;;;;;;;;;;13.70;99.90;;;;;;5062817;28;19929;-55
2022/10/22 03:07:36;;;;;;;;;;;13.70;99.90;;;;;;5062585;28;19932;-55
2022/10/22 03:10:03;;;;;;;;;;;13.70;99.90;;;;;;5062235;28;20309;-55
2022/10/22 03:12:31;;;;;;;;;;;13.70;99.90;;;;;;5062563;28;19936;-55
2022/10/22 03:14:57;;;;;;;;;;;13.70;99.90;;;;;;5062555;28;19928;-55
2022/10/22 03:17:24;;;;;;;;;;;13.70;99.90;;;;;;5062200;28;19932;-55
2022/10/22 03:19:51;;;;;;;;;;;13.70;99.90;;;;;;5061421;28;19929;-55
2022/10/22 03:22:21;;;;;;;;;;;13.70;99.90;;;;;;5061675;28;19936;-55
2022/10/22 03:24:50;;;;;;;;;;;13.70;99.90;;;;;;5061488;28;19936;-55
2022/10/22 03:27:18;;;;;;;;;;;13.70;99.90;;;;;;5062147;28;19933;-55
2022/10/22 03:29:46;;;;;;;;;;;13.70;99.90;;;;;;5062076;28;19928;-55
2022/10/22 03:32:13;;;;;;;;;;;13.70;99.90;;;;;;5061592;28;20392;-55
2022/10/22 03:34:40;;;;;;;;;;;13.70;99.90;;;;;;5062334;28;20902;-55
2022/10/22 03:37:06;;;;;;;;;;;13.70;99.90;;;;;;5061715;28;19933;-55
2022/10/22 03:39:34;;;;;;;;;;;13.60;99.90;;;;;;5061983;28;19935;-55
2022/10/22 03:42:01;;;;;;;;;;;13.60;99.90;;;;;;5062119;28;19929;-55
2022/10/22 03:44:28;;;;;;;;;;;13.60;99.90;;;;;;5061863;28;19950;-55
2022/10/22 03:46:56;;;;;;;;;;;13.50;99.90;;;;;;5060356;28;19940;-55
2022/10/22 03:49:22;;;;;;;;;;;13.60;99.90;;;;;;5061626;28;19935;-55
2022/10/22 03:51:49;;;;;;;;;;;13.60;99.90;;;;;;5062053;28;19933;-55
2022/10/22 03:54:16;;;;;;;;;;;13.60;99.90;;;;;;5061683;28;20585;-55
2022/10/22 03:56:42;;;;;;;;;;;13.60;99.90;;;;;;5061761;28;19932;-55
2022/10/22 03:59:09;;;;;;;;;;;13.60;99.90;;;;;;5061595;28;19928;-55
2022/10/22 04:01:36;;;;;;;;;;;13.50;99.90;;;;;;5061594;28;19935;-55
2022/10/22 04:04:04;;;;;;;;;;;13.50;99.90;;;;;;5060943;28;19978;-55
2022/10/22 04:06:30;;;;;;;;;;;13.50;99.90;;;;;;5061176;28;19928;-55
2022/10/22 04:08:57;;;;;;;;;;;13.50;99.90;;;;;;5061071;28;19967;-55
2022/10/22 04:11:24;;;;;;;;;;;13.50;99.90;;;;;;5060544;28;19936;-55
2022/10/22 04:13:50;;;;;;;;;;;13.50;99.90;;;;;;5060574;28;19936;-55
2022/10/22 04:16:18;;;;;;;;;;;13.50;99.90;;;;;;5061555;28;20407;-55
2022/10/22 04:18:46;;;;;;;;;;;13.50;99.90;;;;;;5061260;28;20353;-55
2022/10/22 04:21:15;;;;;;;;;;;13.50;99.90;;;;;;5059848;28;19936;-55
2022/10/22 04:23:44;;;;;;;;;;;13.50;99.90;;;;;;5061462;28;20718;-55
2022/10/22 04:26:11;;;;;;;;;;;13.50;99.90;;;;;;5061288;28;19937;-55
2022/10/22 04:28:37;;;;;;;;;;;13.50;99.90;;;;;;5060181;28;19929;-55
2022/10/22 04:31:07;;;;;;;;;;;13.50;99.90;;;;;;5061403;28;20339;-55
2022/10/22 04:33:34;;;;;;;;;;;13.50;99.90;;;;;;5061183;28;20023;-55
2022/10/22 04:36:01;;;;;;;;;;;13.50;99.90;;;;;;5060784;28;20435;-55
2022/10/22 04:38:29;;;;;;;;;;;13.40;99.90;;;;;;5060942;28;19935;-55
2022/10/22 04:40:56;;;;;;;;;;;13.40;99.90;;;;;;5060816;28;20023;-55
2022/10/22 04:43:23;;;;;;;;;;;13.40;99.90;;;;;;5060478;28;19963;-55
2022/10/22 04:45:49;;;;;;;;;;;13.40;99.90;;;;;;5060941;28;20444;-55
2022/10/22 04:48:16;;;;;;;;;;;13.50;99.90;;;;;;5061312;28;19929;-55
2022/10/22 04:50:42;;;;;;;;;;;13.40;99.90;;;;;;5061335;28;20396;-55
2022/10/22 04:53:09;;;;;;;;;;;13.50;99.90;;;;;;5060302;28;20445;-55
2022/10/22 04:55:37;;;;;;;;;;;13.40;99.90;;;;;;5060347;28;19939;-55
2022/10/22 04:58:04;;;;;;;;;;;13.40;99.90;;;;;;5059836;28;19929;-55
2022/10/22 05:00:30;;;;;;;;;;;13.40;99.90;;;;;;5059905;28;19929;-55
2022/10/22 05:02:57;;;;;;;;;;;13.40;99.90;;;;;;5060823;28;19928;-55
2022/10/22 05:05:24;;;;;;;;;;;13.40;99.90;;;;;;5060985;28;19932;-55
2022/10/22 05:07:50;;;;;;;;;;;13.40;99.90;;;;;;5060172;28;19928;-55
2022/10/22 05:10:17;;;;;;;;;;;13.40;99.90;;;;;;5059477;28;19936;-55
2022/10/22 05:12:45;;;;;;;;;;;13.40;99.90;;;;;;5060204;28;19929;-55
2022/10/22 05:15:12;;;;;;;;;;;13.40;99.90;;;;;;5060156;28;19941;-55
2022/10/22 05:17:38;;;;;;;;;;;13.40;99.90;;;;;;5060666;28;19928;-55
2022/10/22 05:20:05;;;;;;;;;;;13.30;99.90;;;;;;5060636;28;19934;-55
2022/10/22 05:22:33;;;;;;;;;;;13.40;99.90;;;;;;5060429;28;20300;-55
2022/10/22 05:25:00;;;;;;;;;;;13.40;99.90;;;;;;5059247;28;20437;-55
2022/10/22 05:27:26;;;;;;;;;;;13.40;99.90;;;;;;5060222;28;19928;-55
2022/10/22 05:29:54;;;;;;;;;;;13.40;99.90;;;;;;5060337;28;19928;-55
2022/10/22 05:32:21;;;;;;;;;;;13.40;99.90;;;;;;5060199;28;20411;-55
2022/10/22 05:34:48;;;;;;;;;;;13.40;99.90;;;;;;5060092;28;19939;-55
2022/10/22 05:37:15;;;;;;;;;;;13.30;99.90;;;;;;5059634;28;19929;-55
2022/10/22 05:39:41;;;;;;;;;;;13.30;99.90;;;;;;5059236;28;19928;-55
2022/10/22 05:42:08;;;;;;;;;;;13.40;99.90;;;;;;5060678;28;20529;-55
2022/10/22 05:44:35;;;;;;;;;;;13.40;99.90;;;;;;5059138;28;19933;-55
2022/10/22 05:47:03;;;;;;;;;;;13.40;99.90;;;;;;5059241;28;20014;-55
2022/10/22 05:49:29;;;;;;;;;;;13.40;99.90;;;;;;5059931;28;19940;-55
2022/10/22 05:51:56;;;;;;;;;;;13.40;99.90;;;;;;5059491;28;20427;-55
2022/10/22 05:54:23;;;;;;;;;;;13.40;99.90;;;;;;5060125;28;20403;-55
2022/10/22 05:56:49;;;;;;;;;;;13.40;99.90;;;;;;5059952;28;19940;-55
2022/10/22 05:59:16;;;;;;;;;;;13.40;99.90;;;;;;5058347;28;21522;-55
2022/10/22 06:01:42;;;;;;;;;;;13.40;99.90;;;;;;5059888;28;19929;-55
2022/10/22 06:04:12;;;;;;;;;;;13.40;99.90;;;;;;5059211;28;19932;-55
2022/10/22 06:06:39;;;;;;;;;;;13.40;99.90;;;;;;5060165;28;19940;-55
2022/10/22 06:09:07;;;;;;;;;;;13.40;99.90;;;;;;5059722;28;19939;-55
2022/10/22 06:11:34;;;;;;;;;;;13.40;99.90;;;;;;5059638;28;19929;-55
2022/10/22 06:14:00;;;;;;;;;;;13.40;99.90;;;;;;5058613;28;19933;-55
2022/10/22 06:16:28;;;;;;;;;;;13.40;99.90;;;;;;5058816;28;19929;-55
2022/10/22 06:18:55;;;;;;;;;;;13.50;99.90;;;;;;5059752;28;20402;-55
2022/10/22 06:21:23;;;;;;;;;;;13.50;99.90;;;;;;5059072;28;19951;-55
2022/10/22 06:23:49;;;;;;;;;;;13.50;99.90;;;;;;5059136;28;20446;-55
2022/10/22 06:26:16;;;;;;;;;;;13.50;99.90;;;;;;5059589;28;19943;-55
2022/10/22 06:28:43;;;;;;;;;;;13.50;99.90;;;;;;5058519;28;20442;-55
2022/10/22 06:31:10;;;;;;;;;;;13.40;99.90;;;;;;5059552;28;21772;-55
2022/10/22 06:33:41;;;;;;;;;;;13.50;99.90;;;;;;5059781;28;19932;-55
2022/10/22 06:36:08;;;;;;;;;;;13.40;99.90;;;;;;5059831;28;19929;-55
2022/10/22 06:38:36;;;;;;;;;;;13.50;99.90;;;;;;5059077;28;20410;-55
2022/10/22 06:41:03;;;;;;;;;;;13.50;99.90;;;;;;5058549;28;20508;-55
2022/10/22 06:43:30;;;;;;;;;;;13.50;99.90;;;;;;5059466;28;20346;-55
2022/10/22 06:45:58;;;;;;;;;;;13.50;99.90;;;;;;5059057;28;19929;-55
2022/10/22 06:48:25;;;;;;;;;;;13.50;99.90;;;;;;5059048;28;20479;-55
2022/10/22 06:50:52;;;;;;;;;;;13.50;99.90;;;;;;5058984;28;19937;-55
2022/10/22 06:53:18;;;;;;;;;;;13.50;99.90;;;;;;5059426;28;19939;-55
2022/10/22 06:55:46;;;;;;;;;;;13.50;99.90;;;;;;5058562;28;19963;-55
2022/10/22 06:58:13;;;;;;;;;;;13.60;99.90;;;;;;5058505;28;20311;-55
2022/10/22 07:00:39;;;;;;;;;;;13.60;99.90;;;;;;5059026;28;19933;-56
2022/10/22 07:03:06;;;;;;;;;;;13.60;99.90;;;;;;5059016;28;19940;-55
2022/10/22 07:05:33;;;;;;;;;;;13.60;99.90;;;;;;5058892;28;19929;-55
2022/10/22 07:08:00;;;;;;;;;;;13.60;99.90;;;;;;5058693;28;19929;-55
2022/10/22 07:10:26;;;;;;;;;;;13.60;99.90;;;;;;5058530;28;19929;-55
2022/10/22 07:12:54;;;;;;;;;;;13.70;99.90;;;;;;5058643;28;19932;-55
2022/10/22 07:15:21;;;;;;;;;;;13.70;99.90;;;;;;5058469;28;19935;-55
2022/10/22 07:17:48;;;;;;;;;;;13.70;99.90;;;;;;5058905;28;20327;-55
2022/10/22 07:20:15;;;;;;;;;;;13.70;99.90;;;;;;5058571;28;19928;-55
2022/10/22 07:22:42;;;;;;;;;;;13.70;99.90;;;;;;5059338;28;19933;-55
2022/10/22 07:25:09;;;;;;;;;;;13.70;99.90;;;;;;5059584;28;19929;-55
2022/10/22 07:27:35;;;;;;;;;;;13.70;99.90;;;;;;5062124;28;20365;-55
2022/10/22 07:30:04;;;;;;;;;;;13.80;99.90;;;;;;5061617;28;19929;-55
2022/10/22 07:32:30;;;;;;;;;;;13.80;99.90;;;;;;5061799;28;20339;-55
2022/10/22 07:34:57;;;;;;;;;;;13.80;99.90;;;;;;5061266;28;20663;-55
2022/10/22 07:37:24;;;;;;;;;;;13.80;99.90;;;;;;5060964;28;19928;-56
2022/10/22 07:39:50;;;;;;;;;;;13.80;99.90;;;;;;5061139;28;19929;-55
2022/10/22 07:42:17;;;;;;;;;;;13.80;99.90;;;;;;5061668;28;19944;-55
2022/10/22 07:44:44;;;;;;;;;;;13.80;99.90;;;;;;5061401;28;19935;-55
2022/10/22 07:47:12;;;;;;;;;;;13.90;99.90;;;;;;5061398;28;19929;-55
2022/10/22 07:49:38;;;;;;;;;;;13.90;99.90;;;;;;5061766;28;19929;-55
2022/10/22 07:52:06;;;;;;;;;;;13.90;99.90;;;;;;5061024;28;19939;-55
2022/10/22 07:54:33;;;;;;;;;;;13.90;99.90;;;;;;5060779;28;19943;-55
2022/10/22 07:56:59;;;;;;;;;;;13.90;99.90;;;;;;5061132;28;19929;-55
2022/10/22 07:59:26;;;;;;;;;;;13.90;99.90;;;;;;5061658;28;19929;-55
2022/10/22 08:01:53;;;;;;;;;;;13.90;99.90;;;;;;5060091;28;20502;-56
2022/10/22 08:04:21;;;;;;;;;;;14.00;99.90;;;;;;5059620;28;20344;-55
2022/10/22 08:06:47;;;;;;;;;;;14.00;99.90;;;;;;5060608;28;19951;-55
2022/10/22 08:09:14;;;;;;;;;;;13.90;99.90;;;;;;5060525;28;20485;-55
2022/10/22 08:11:41;;;;;;;;;;;14.00;99.90;;;;;;5061112;28;19939;-55
2022/10/22 08:14:07;;;;;;;;;;;14.00;99.90;;;;;;5060445;28;20726;-55
2022/10/22 08:16:34;;;;;;;;;;;14.00;99.90;;;;;;5060526;28;21830;-55
2022/10/22 08:19:00;;;;;;;;;;;14.00;99.90;;;;;;5060365;28;20343;-55
2022/10/22 08:21:28;;;;;;;;;;;14.00;99.90;;;;;;5059278;28;19933;-55
2022/10/22 08:23:55;;;;;;;;;;;14.10;99.90;;;;;;5060099;28;19938;-55
2022/10/22 08:26:22;;;;;;;;;;;14.10;99.90;;;;;;5060895;28;19932;-55
2022/10/22 08:28:48;;;;;;;;;;;14.10;99.90;;;;;;5061068;28;20318;-55
2022/10/22 08:31:15;;;;;;;;;;;14.20;99.90;;;;;;5060115;28;19944;-55
2022/10/22 08:33:42;;;;;;;;;;;14.20;99.90;;;;;;5058276;28;19932;-55
2022/10/22 08:36:09;;;;;;;;;;;14.30;99.90;;;;;;5060025;28;20701;-55
2022/10/22 08:38:37;;;;;;;;;;;14.40;99.90;;;;;;5060495;28;19929;-55
2022/10/22 08:41:08;;;;;;;;;;;14.40;99.90;;;;;;5060692;28;19932;-56
2022/10/22 08:43:52;;;;;;;;;;;14.50;99.90;;;;;;5060017;28;19928;-55
2022/10/22 08:46:26;;;;;;;;;;;14.60;99.90;;;;;;5060241;28;19929;-55
2022/10/22 08:48:54;;;;;;;;;;;14.60;99.90;;;;;;5059519;28;19975;-55
2022/10/22 08:51:23;;;;;;;;;;;14.70;99.90;;;;;;5060180;28;19933;-56
2022/10/22 08:54:05;;;;;;;;;;;14.70;99.90;;;;;;5059830;28;19928;-55
2022/10/22 08:56:34;;;;;;;;;;;14.80;99.90;;;;;;5060329;28;19928;-55
2022/10/22 08:59:04;;;;;;;;;;;14.80;99.90;;;;;;5060025;28;19929;-56
2022/10/22 09:01:34;;;;;;;;;;;14.80;99.90;;;;;;5059117;28;19939;-56
2022/10/22 09:04:05;;;;;;;;;;;14.90;99.90;;;;;;5059454;28;19929;-56
2022/10/22 09:06:33;;;;;;;;;;;15.00;99.90;;;;;;5059572;28;19928;-55
2022/10/22 09:09:02;;;;;;;;;;;15.00;99.90;;;;;;5059992;28;20676;-55
2022/10/22 09:11:31;;;;;;;;;;;15.10;99.90;;;;;;5059578;28;20426;-56
2022/10/22 09:13:58;;;;;;;;;;;15.10;99.90;;;;;;5059717;28;19928;-55
2022/10/22 09:16:30;;;;;;;;;;;15.10;99.90;;;;;;5059203;28;19928;-56
2022/10/22 09:19:03;;;;;;;;;;;15.20;99.90;;;;;;5059574;28;19928;-55
2022/10/22 09:21:34;;;;;;;;;;;15.20;99.90;;;;;;5059737;28;19932;-56
2022/10/22 09:24:09;;;;;;;;;;;15.30;99.90;;;;;;5059118;28;19928;-56
2022/10/22 09:26:37;;;;;;;;;;;15.30;99.90;;;;;;5059604;28;20414;-55
2022/10/22 09:29:04;;;;;;;;;;;15.40;99.90;;;;;;5059588;28;19928;-55
2022/10/22 09:31:32;;;;;;;;;;;15.50;99.90;;;;;;5058608;28;20351;-56
2022/10/22 09:34:04;;;;;;;;;;;15.50;99.90;;;;;;5058848;28;20392;-56
2022/10/22 09:36:31;;;;;;;;;;;15.60;99.90;;;;;;5058886;28;19928;-55
2022/10/22 09:38:58;;;;;;;;;;;15.60;99.90;;;;;;5060212;28;20439;-56
2022/10/22 09:41:28;;;;;;;;;;;15.60;99.90;;;;;;5058961;28;19932;-55
2022/10/22 09:43:55;;;;;;;;;;;15.60;99.90;;;;;;5058515;28;20002;-56
2022/10/22 09:46:24;;;;;;;;;;;15.60;99.90;;;;;;5058799;28;19929;-56
2022/10/22 09:48:53;;;;;;;;;;;15.60;99.90;;;;;;5058934;28;20438;-56
2022/10/22 09:51:20;;;;;;;;;;;15.60;99.90;;;;;;5059495;28;20228;-55
2022/10/22 09:53:47;;;;;;;;;;;15.60;99.90;;;;;;5058828;28;19928;-55
2022/10/22 09:56:18;;;;;;;;;;;15.60;99.90;;;;;;5059561;28;19935;-56
2022/10/22 09:58:48;;;;;;;;;;;15.70;99.90;;;;;;5058024;28;19936;-57
2022/10/22 10:01:18;;;;;;;;;;;15.70;99.90;;;;;;5058532;28;20409;-56
2022/10/22 10:03:45;;;;;;;;;;;15.70;99.90;;;;;;5058927;28;19935;-55
2022/10/22 10:06:12;;;;;;;;;;;15.70;99.90;;;;;;5058604;28;20422;-56
2022/10/22 10:08:39;;;;;;;;;;;15.70;99.90;;;;;;5059640;28;19938;-56
2022/10/22 10:11:10;;;;;;;;;;;15.70;99.90;;;;;;5058304;28;19940;-55
2022/10/22 10:13:40;;;;;;;;;;;15.70;99.90;;;;;;5059755;28;19929;-56
2022/10/22 10:16:12;;;;;;;;;;;15.60;99.90;;;;;;5058658;28;19929;-56
2022/10/22 10:18:43;;;;;;;;;;;15.70;99.90;;;;;;5058689;28;20557;-56
2022/10/22 10:21:15;;;;;;;;;;;15.60;99.90;;;;;;5058687;28;19933;-56
2022/10/22 10:23:46;;;;;;;;;;;15.70;99.90;;;;;;5058603;28;19936;-56
2022/10/22 10:26:16;;;;;;;;;;;15.60;99.90;;;;;;5057989;28;20646;-56
2022/10/22 10:28:50;;;;;;;;;;;15.70;99.90;;;;;;5059164;28;19929;-55
2022/10/22 10:31:20;;;;;;;;;;;15.80;99.90;;;;;;5058574;28;20415;-55
2022/10/22 10:33:50;;;;;;;;;;;15.80;99.90;;;;;;5058849;28;21713;-56
2022/10/22 10:36:19;;;;;;;;;;;15.80;99.90;;;;;;5059396;28;19928;-55
2022/10/22 10:38:52;;;;;;;;;;;15.80;99.90;;;;;;5058017;28;19929;-56
2022/10/22 10:41:23;;;;;;;;;;;15.70;99.90;;;;;;5058811;28;19932;-55
2022/10/22 10:44:01;;;;;;;;;;;15.70;99.90;;;;;;5058027;28;19959;-55
2022/10/22 10:46:33;;;;;;;;;;;15.70;99.90;;;;;;5058669;28;20405;-55
2022/10/22 10:49:00;;;;;;;;;;;15.80;99.90;;;;;;5058823;28;19935;-55
2022/10/22 10:51:33;;;;;;;;;;;15.80;99.90;;;;;;5059199;28;19940;-55
2022/10/22 10:54:05;;;;;;;;;;;15.70;99.90;;;;;;5057847;28;19939;-55
2022/10/22 10:56:36;;;;;;;;;;;15.70;99.90;;;;;;5059323;28;19929;-55
2022/10/22 10:59:09;;;;;;;;;;;15.70;99.90;;;;;;5061474;28;19928;-56
2022/10/22 11:01:40;;;;;;;;;;;15.70;99.90;;;;;;5062425;28;20407;-55
2022/10/22 11:04:21;;;;;;;;;;;15.70;99.90;;;;;;5061951;28;19936;-55
2022/10/22 11:06:49;;;;;;;;;;;15.60;99.90;;;;;;5061555;28;20021;-55
2022/10/22 11:09:22;;;;;;;;;;;15.60;99.90;;;;;;5061873;28;19928;-55
2022/10/22 11:11:49;;;;;;;;;;;15.60;99.90;;;;;;5061618;28;19940;-55
2022/10/22 11:14:18;;;;;;;;;;;15.60;99.90;;;;;;5061424;28;19928;-55
2022/10/22 11:16:48;;;;;;;;;;;15.60;99.90;;;;;;5060749;28;19929;-56
2022/10/22 11:19:18;;;;;;;;;;;15.60;99.90;;;;;;5061778;28;19939;-55
2022/10/22 11:21:46;;;;;;;;;;;15.60;99.90;;;;;;5061622;28;19933;-55
2022/10/22 11:24:16;;;;;;;;;;;15.60;99.90;;;;;;5062260;28;19929;-55
2022/10/22 11:26:45;;;;;;;;;;;15.60;99.90;;;;;;5062291;28;19935;-55
2022/10/22 11:29:15;;;;;;;;;;;15.80;99.90;;;;;;5061285;28;20378;-55
2022/10/22 11:31:43;;;;;;;;;;;15.90;99.90;;;;;;5061106;28;19933;-56
2022/10/22 11:34:16;;;;;;;;;;;16.00;99.90;;;;;;5061961;28;19939;-55
2022/10/22 11:36:43;;;;;;;;;;;16.00;99.90;;;;;;5060593;28;19933;-55
2022/10/22 11:39:24;;;;;;;;;;;16.00;99.90;;;;;;5061617;28;19929;-55
2022/10/22 11:41:52;;;;;;;;;;;16.00;99.90;;;;;;5061510;28;19940;-55
2022/10/22 11:44:22;;;;;;;;;;;16.00;99.90;;;;;;5059457;28;19929;-55
2022/10/22 11:46:54;;;;;;;;;;;16.00;99.90;;;;;;5060268;28;19929;-55
2022/10/22 11:49:27;;;;;;;;;;;15.90;99.90;;;;;;5061193;28;20841;-55
2022/10/22 11:52:06;;;;;;;;;;;15.90;99.90;;;;;;5059632;28;19943;-55
2022/10/22 11:54:41;;;;;;;;;;;15.90;99.90;;;;;;5060350;28;19943;-55
2022/10/22 11:57:18;;;;;;;;;;;15.80;99.90;;;;;;5061291;28;20051;-55
2022/10/22 11:59:48;;;;;;;;;;;15.80;99.90;;;;;;5060800;28;19934;-55
2022/10/22 12:02:39;;;;;;;;;;;15.80;99.90;;;;;;5061230;28;19975;-55
2022/10/22 12:05:33;;;;;;;;;;;15.80;99.90;;;;;;5043366;28;19932;-55
2022/10/22 12:08:02;;;;;;;;;;;15.80;99.90;;;;;;5020381;28;19935;-55
2022/10/22 12:10:33;;;;;;;;;;;15.80;99.90;;;;;;5061441;28;19928;-55
2022/10/22 12:13:02;;;;;;;;;;;15.80;99.90;;;;;;5060410;28;20542;-55
2022/10/22 12:15:29;;;;;;;;;;;15.80;99.90;;;;;;5059436;28;19951;-55
2022/10/22 12:17:59;;;;;;;;;;;15.80;99.90;;;;;;5060327;28;19928;-56
2022/10/22 12:20:26;;;;;;;;;;;15.80;99.90;;;;;;5061594;28;19935;-55
2022/10/22 12:22:53;;;;;;;;;;;15.80;99.90;;;;;;5060223;28;19939;-55
2022/10/22 12:25:23;;;;;;;;;;;15.80;99.90;;;;;;5060632;28;19935;-55
2022/10/22 12:27:52;;;;;;;;;;;15.90;99.90;;;;;;5059785;28;19929;-55
2022/10/22 12:30:21;;;;;;;;;;;15.90;99.90;;;;;;5060778;28;19928;-55
2022/10/22 12:32:47;;;;;;;;;;;15.90;99.90;;;;;;5060438;28;19942;-55
2022/10/22 12:35:16;;;;;;;;;;;15.80;99.90;;;;;;5060743;28;19928;-55
2022/10/22 12:37:42;;;;;;;;;;;15.90;99.90;;;;;;5060343;28;19937;-55
2022/10/22 12:40:16;;;;;;;;;;;15.90;99.90;;;;;;5059616;28;21595;-55
2022/10/22 12:42:48;;;;;;;;;;;15.90;99.90;;;;;;5059433;28;19974;-55
2022/10/22 12:45:14;;;;;;;;;;;15.80;99.90;;;;;;5060453;28;19929;-55
2022/10/22 12:47:45;;;;;;;;;;;15.80;99.90;;;;;;5060464;28;20038;-55
2022/10/22 12:50:16;;;;;;;;;;;15.80;99.90;;;;;;5059507;28;19929;-55
2022/10/22 12:52:43;;;;;;;;;;;15.80;99.90;;;;;;5060426;28;20342;-55
2022/10/22 12:55:14;;;;;;;;;;;15.80;99.90;;;;;;5060256;28;19929;-55
2022/10/22 12:57:41;;;;;;;;;;;15.80;99.90;;;;;;5060010;28;20453;-55
2022/10/22 13:00:20;;;;;;;;;;;15.80;99.90;;;;;;5060210;28;20396;-55
2022/10/22 13:02:47;;;;;;;;;;;15.90;99.90;;;;;;5060092;28;19939;-55
2022/10/22 13:05:16;;;;;;;;;;;15.90;99.90;;;;;;5060159;28;20410;-55
2022/10/22 13:07:43;;;;;;;;;;;15.90;99.90;;;;;;5060114;28;19929;-55
2022/10/22 13:10:15;;;;;;;;;;;16.00;99.90;;;;;;5059605;28;19968;-55
2022/10/22 13:12:44;;;;;;;;;;;16.00;99.90;;;;;;5060144;28;20059;-55
2022/10/22 13:15:32;;;;;;;;;;;16.00;99.90;;;;;;5059649;28;19929;-55
2022/10/22 13:18:02;;;;;;;;;;;16.00;99.90;;;;;;5060652;28;19937;-55
2022/10/22 13:20:28;;;;;;;;;;;16.10;99.90;;;;;;5059825;28;20019;-55
2022/10/22 13:22:59;;;;;;;;;;;16.10;99.90;;;;;;5059821;28;20427;-55
2022/10/22 13:25:26;;;;;;;;;;;16.10;99.90;;;;;;5059102;28;20019;-55
2022/10/22 13:27:55;;;;;;;;;;;16.20;99.90;;;;;;5059845;28;20039;-55
2022/10/22 13:30:24;;;;;;;;;;;16.20;99.90;;;;;;5060270;28;19928;-55
2022/10/22 13:32:52;;;;;;;;;;;16.20;99.90;;;;;;5060216;28;19932;-55
2022/10/22 13:35:21;;;;;;;;;;;16.20;99.90;;;;;;5059784;28;19935;-55
2022/10/22 13:37:48;;;;;;;;;;;16.20;99.90;;;;;;5059739;28;20330;-56
2022/10/22 13:40:15;;;;;;;;;;;16.30;99.90;;;;;;5060018;28;19929;-55
2022/10/22 13:42:41;;;;;;;;;;;16.30;99.90;;;;;;5060194;28;19932;-55
2022/10/22 13:45:08;;;;;;;;;;;16.20;99.90;;;;;;5059874;28;19935;-55
2022/10/22 13:47:36;;;;;;;;;;;16.20;99.90;;;;;;5059701;28;19940;-56
2022/10/22 13:50:04;;;;;;;;;;;16.20;99.90;;;;;;5059547;28;19929;-55
2022/10/22 13:52:36;;;;;;;;;;;16.20;99.90;;;;;;5058832;28;20478;-55
2022/10/22 13:55:12;;;;;;;;;;;16.20;99.90;;;;;;5059850;28;19928;-55
2022/10/22 13:57:38;;;;;;;;;;;16.20;99.90;;;;;;5059744;28;19928;-55
2022/10/22 14:00:06;;;;;;;;;;;16.20;99.90;;;;;;5059291;28;19928;-55
2022/10/22 14:02:32;;;;;;;;;;;16.20;99.90;;;;;;5059319;28;19933;-55
2022/10/22 14:05:03;;;;;;;;;;;16.20;99.90;;;;;;5059203;28;19928;-55
2022/10/22 14:07:29;;;;;;;;;;;16.20;99.90;;;;;;5057972;28;19928;-55
2022/10/22 14:09:56;;;;;;;;;;;16.10;99.90;;;;;;5059458;28;20634;-55
2022/10/22 14:12:24;;;;;;;;;;;16.10;99.90;;;;;;5059596;28;19932;-55
2022/10/22 14:14:50;;;;;;;;;;;16.10;99.90;;;;;;5058609;28;19936;-55
2022/10/22 14:17:18;;;;;;;;;;;16.10;99.90;;;;;;5059277;28;19935;-55
2022/10/22 14:19:45;;;;;;;;;;;16.10;99.90;;;;;;5059150;28;19928;-55
2022/10/22 14:22:16;;;;;;;;;;;16.10;99.90;;;;;;5058671;28;20115;-56
2022/10/22 14:24:43;;;;;;;;;;;16.10;99.90;;;;;;5059022;28;19929;-55